Africa, Pennsylvania
Current Conditions -  °F | °C
As of 8:36 PM on Monday 22 Dec 2014 (Local Time) from KHGR Reporting Station
Freezing Rain Freezing Rain  
Wind Chill: 29°   Ceiling: 400
Heat Index: 33°   Visibility: 2mi
Dew Point: 31°   Wind: 5mph
Humidity: 92%   Direction: 20°NNE
Pressure: 30.15"   Gusts: NA
Location:  39.8035°N, 77.9346°W
Report Text: KHGR 230136Z 02004KT 2SM -FZRA BR BKN004 BKN015 OVC027 01/M01 A3015 RMK AO2 RAB00E02FZRAB02 P0001 I1002 T00061006
Loading
Personal Weather Stations






























Interactive Weather Map New forecast layout! Learn more

10-Day Weather Forecast

Advertisements
Track Severe Weather on mobile